Camden, North Carolina
Current Conditions -  °F | °C
As of 10:54 PM on Wednesday 22 Oct 2014 (Local Time) from KECG Reporting Station
Overcast Overcast  
Wind Chill: 57°   Ceiling: 2700
Heat Index: 57°   Visibility: 10mi
Dew Point: 48°   Wind: 15mph
Humidity: 72%   Direction: 300°WNW
Pressure: 29.92"   Gusts: 25mph
Location:  36.33°N, 76.17°W
Report Text: KECG 230254Z AUTO 30013G22KT 10SM OVC027 14/09 A2992 RMK AO2 SLP130 T01390089 51008 TSNO
Loading
Personal Weather Stations






























Interactive Weather Map
Tropical Storm Tracking
New forecast layout! Learn more

10-Day Weather Forecast

Advertisements
Track Severe Weather on mobile